sensor_id;sensor_type;location;lat;lon;timestamp;pressure;altitude;pressure_sealevel;temperature;humidity
77587;BME280;66744;49.716;17.158;2023-04-26T00:01:02;98709.41;;;5.55;77.56
77587;BME280;66744;49.716;17.158;2023-04-26T00:04:06;98707.16;;;5.50;77.53
77587;BME280;66744;49.716;17.158;2023-04-26T00:07:08;98715.78;;;5.45;79.17
77587;BME280;66744;49.716;17.158;2023-04-26T00:10:10;98713.88;;;5.42;78.13
77587;BME280;66744;49.716;17.158;2023-04-26T00:13:11;98720.53;;;5.38;78.57
77587;BME280;66744;49.716;17.158;2023-04-26T00:16:13;98731.50;;;5.34;78.55
77587;BME280;66744;49.716;17.158;2023-04-26T00:19:14;98729.19;;;5.29;79.09
77587;BME280;66744;49.716;17.158;2023-04-26T00:22:16;98738.19;;;5.26;80.23
77587;BME280;66744;49.716;17.158;2023-04-26T00:25:17;98730.44;;;5.25;78.90
77587;BME280;66744;49.716;17.158;2023-04-26T00:28:19;98731.25;;;5.22;79.47
77587;BME280;66744;49.716;17.158;2023-04-26T00:31:20;98740.19;;;5.22;78.68
77587;BME280;66744;49.716;17.158;2023-04-26T00:34:22;98744.88;;;5.22;79.95
77587;BME280;66744;49.716;17.158;2023-04-26T00:37:24;98744.91;;;5.18;79.61
77587;BME280;66744;49.716;17.158;2023-04-26T00:40:25;98743.41;;;5.14;80.06
77587;BME280;66744;49.716;17.158;2023-04-26T00:43:27;98749.59;;;5.14;79.58
77587;BME280;66744;49.716;17.158;2023-04-26T00:46:28;98751.56;;;5.14;80.76
77587;BME280;66744;49.716;17.158;2023-04-26T00:49:31;98753.91;;;5.12;79.84
77587;BME280;66744;49.716;17.158;2023-04-26T00:52:32;98760.13;;;5.12;79.25
77587;BME280;66744;49.716;17.158;2023-04-26T00:55:34;98759.03;;;5.06;80.35
77587;BME280;66744;49.716;17.158;2023-04-26T00:58:36;98765.25;;;5.07;79.74
77587;BME280;66744;49.716;17.158;2023-04-26T01:01:38;98769.94;;;5.02;79.68
77587;BME280;66744;49.716;17.158;2023-04-26T01:04:42;98772.28;;;5.04;79.35
77587;BME280;66744;49.716;17.158;2023-04-26T01:07:45;98766.84;;;5.04;80.21
77587;BME280;66744;49.716;17.158;2023-04-26T01:10:47;98769.59;;;5.00;79.12
77587;BME280;66744;49.716;17.158;2023-04-26T01:13:51;98766.13;;;4.93;79.70
77587;BME280;66744;49.716;17.158;2023-04-26T01:16:53;98770.88;;;4.89;79.09
77587;BME280;66744;49.716;17.158;2023-04-26T01:19:55;98772.84;;;4.85;80.64
77587;BME280;66744;49.716;17.158;2023-04-26T01:22:58;98772.88;;;4.81;79.83
77587;BME280;66744;49.716;17.158;2023-04-26T01:26:00;98774.41;;;4.82;80.12
77587;BME280;66744;49.716;17.158;2023-04-26T01:29:12;98775.22;;;4.79;79.80
77587;BME280;66744;49.716;17.158;2023-04-26T01:32:13;98788.47;;;4.77;80.94
77587;BME280;66744;49.716;17.158;2023-04-26T01:35:15;98786.13;;;4.76;79.33
77587;BME280;66744;49.716;17.158;2023-04-26T01:38:16;98796.66;;;4.74;80.42
77587;BME280;66744;49.716;17.158;2023-04-26T01:41:21;98790.88;;;4.68;80.22
77587;BME280;66744;49.716;17.158;2023-04-26T01:44:22;98794.41;;;4.62;79.78
77587;BME280;66744;49.716;17.158;2023-04-26T01:47:23;98794.88;;;4.53;80.63
77587;BME280;66744;49.716;17.158;2023-04-26T01:50:27;98793.75;;;4.47;79.96
77587;BME280;66744;49.716;17.158;2023-04-26T01:53:28;98794.91;;;4.46;80.36
77587;BME280;66744;49.716;17.158;2023-04-26T01:56:29;98789.88;;;4.44;80.44
77587;BME280;66744;49.716;17.158;2023-04-26T01:59:30;98791.06;;;4.43;81.15
77587;BME280;66744;49.716;17.158;2023-04-26T02:02:33;98787.19;;;4.41;80.49
77587;BME280;66744;49.716;17.158;2023-04-26T02:05:34;98789.16;;;4.37;81.20
77587;BME280;66744;49.716;17.158;2023-04-26T02:08:39;98793.88;;;4.29;81.80
77587;BME280;66744;49.716;17.158;2023-04-26T02:11:41;98793.50;;;4.27;80.52
77587;BME280;66744;49.716;17.158;2023-04-26T02:14:42;98790.81;;;4.20;80.79
77587;BME280;66744;49.716;17.158;2023-04-26T02:17:44;98793.97;;;4.15;81.13
77587;BME280;66744;49.716;17.158;2023-04-26T02:20:45;98799.00;;;4.13;82.09
77587;BME280;66744;49.716;17.158;2023-04-26T02:23:47;98799.78;;;4.17;81.75
77587;BME280;66744;49.716;17.158;2023-04-26T02:26:48;98790.84;;;4.13;81.45
77587;BME280;66744;49.716;17.158;2023-04-26T02:29:49;98796.34;;;4.10;81.83
77587;BME280;66744;49.716;17.158;2023-04-26T02:32:52;98797.09;;;4.10;83.64
77587;BME280;66744;49.716;17.158;2023-04-26T02:35:54;98801.38;;;4.08;82.45
77587;BME280;66744;49.716;17.158;2023-04-26T02:38:55;98790.53;;;4.04;82.77
77587;BME280;66744;49.716;17.158;2023-04-26T02:41:57;98801.03;;;3.99;81.52
77587;BME280;66744;49.716;17.158;2023-04-26T02:44:58;98799.91;;;3.92;81.71
77587;BME280;66744;49.716;17.158;2023-04-26T02:47:59;98800.72;;;3.86;81.78
77587;BME280;66744;49.716;17.158;2023-04-26T02:51:01;98797.25;;;3.78;81.50
77587;BME280;66744;49.716;17.158;2023-04-26T02:54:02;98798.81;;;3.76;81.87
77587;BME280;66744;49.716;17.158;2023-04-26T02:57:04;98793.41;;;3.72;81.79
77587;BME280;66744;49.716;17.158;2023-04-26T03:00:06;98796.53;;;3.64;82.12
77587;BME280;66744;49.716;17.158;2023-04-26T03:03:09;98798.91;;;3.55;81.88
77587;BME280;66744;49.716;17.158;2023-04-26T03:06:10;98803.56;;;3.51;82.15
77587;BME280;66744;49.716;17.158;2023-04-26T03:09:12;98808.25;;;3.50;82.57
77587;BME280;66744;49.716;17.158;2023-04-26T03:12:13;98810.56;;;3.48;82.56
77587;BME280;66744;49.716;17.158;2023-04-26T03:15:14;98813.69;;;3.50;82.35
77587;BME280;66744;49.716;17.158;2023-04-26T03:18:17;98819.13;;;3.47;81.62
77587;BME280;66744;49.716;17.158;2023-04-26T03:21:19;98820.63;;;3.48;81.51
77587;BME280;66744;49.716;17.158;2023-04-26T03:24:20;98823.75;;;3.46;81.22
77587;BME280;66744;49.716;17.158;2023-04-26T03:27:21;98823.75;;;3.46;82.37
77587;BME280;66744;49.716;17.158;2023-04-26T03:30:23;98832.28;;;3.52;81.91
77587;BME280;66744;49.716;17.158;2023-04-26T03:33:24;98825.31;;;3.47;81.89
77587;BME280;66744;49.716;17.158;2023-04-26T03:36:25;98825.34;;;3.40;81.94
77587;BME280;66744;49.716;17.158;2023-04-26T03:39:28;98831.13;;;3.38;81.55
77587;BME280;66744;49.716;17.158;2023-04-26T03:42:30;98826.13;;;3.37;83.23
77587;BME280;66744;49.716;17.158;2023-04-26T03:45:32;98836.59;;;3.35;81.88
77587;BME280;66744;49.716;17.158;2023-04-26T03:48:33;98837.38;;;3.28;80.99
77587;BME280;66744;49.716;17.158;2023-04-26T03:51:34;98835.03;;;3.27;80.94
77587;BME280;66744;49.716;17.158;2023-04-26T03:54:35;98840.88;;;3.25;81.59
77587;BME280;66744;49.716;17.158;2023-04-26T03:57:37;98848.25;;;3.28;81.85
77587;BME280;66744;49.716;17.158;2023-04-26T04:00:39;98850.56;;;3.33;82.49
77587;BME280;66744;49.716;17.158;2023-04-26T04:03:43;98847.81;;;3.41;82.30
77587;BME280;66744;49.716;17.158;2023-04-26T04:06:44;98854.41;;;3.43;82.33
77587;BME280;66744;49.716;17.158;2023-04-26T04:09:46;98848.19;;;3.46;82.70
77587;BME280;66744;49.716;17.158;2023-04-26T04:12:48;98848.56;;;3.52;83.63
77587;BME280;66744;49.716;17.158;2023-04-26T04:15:50;98858.25;;;3.60;82.43
77587;BME280;66744;49.716;17.158;2023-04-26T04:18:52;98850.88;;;3.64;81.91
77587;BME280;66744;49.716;17.158;2023-04-26T04:21:53;98857.09;;;3.64;81.06
77587;BME280;66744;49.716;17.158;2023-04-26T04:24:54;98857.09;;;3.61;81.59
77587;BME280;66744;49.716;17.158;2023-04-26T04:27:56;98865.22;;;3.64;82.73
77587;BME280;66744;49.716;17.158;2023-04-26T04:30:58;98862.47;;;3.71;81.64
77587;BME280;66744;49.716;17.158;2023-04-26T04:34:01;98860.13;;;3.80;83.29
77587;BME280;66744;49.716;17.158;2023-04-26T04:37:02;98860.91;;;3.81;80.60
77587;BME280;66744;49.716;17.158;2023-04-26T04:40:07;98866.31;;;3.81;82.04
77587;BME280;66744;49.716;17.158;2023-04-26T04:43:11;98869.03;;;3.84;81.68
77587;BME280;66744;49.716;17.158;2023-04-26T04:46:12;98876.00;;;3.89;82.39
77587;BME280;66744;49.716;17.158;2023-04-26T04:49:13;98890.72;;;4.02;82.51
77587;BME280;66744;49.716;17.158;2023-04-26T04:52:16;98894.50;;;4.22;81.22
77587;BME280;66744;49.716;17.158;2023-04-26T04:55:17;98898.69;;;4.44;79.21
77587;BME280;66744;49.716;17.158;2023-04-26T04:58:19;98894.63;;;4.67;77.70
77587;BME280;66744;49.716;17.158;2023-04-26T05:01:22;98898.75;;;4.92;77.46
77587;BME280;66744;49.716;17.158;2023-04-26T05:04:27;98903.34;;;4.99;76.64
77587;BME280;66744;49.716;17.158;2023-04-26T05:07:32;98898.75;;;4.92;76.19
77587;BME280;66744;49.716;17.158;2023-04-26T05:10:35;98902.66;;;4.91;76.26
77587;BME280;66744;49.716;17.158;2023-04-26T05:13:37;98915.03;;;4.99;77.16
77587;BME280;66744;49.716;17.158;2023-04-26T05:16:39;98911.47;;;5.10;75.49
77587;BME280;66744;49.716;17.158;2023-04-26T05:19:42;98913.69;;;5.22;75.60
77587;BME280;66744;49.716;17.158;2023-04-26T05:22:45;98900.81;;;5.26;73.49
77587;BME280;66744;49.716;17.158;2023-04-26T05:25:46;98909.69;;;5.33;73.71
77587;BME280;66744;49.716;17.158;2023-04-26T05:29:06;98924.03;;;5.41;74.51
77587;BME280;66744;49.716;17.158;2023-04-26T05:32:20;98920.13;;;5.42;73.81
77587;BME280;66744;49.716;17.158;2023-04-26T05:35:45;98918.50;;;5.51;73.62
77587;BME280;66744;49.716;17.158;2023-04-26T05:38:49;98916.88;;;5.57;72.02
77587;BME280;66744;49.716;17.158;2023-04-26T05:41:50;98919.97;;;5.59;72.59
77587;BME280;66744;49.716;17.158;2023-04-26T05:44:58;98923.03;;;5.65;71.38
77587;BME280;66744;49.716;17.158;2023-04-26T05:48:01;98921.81;;;5.70;70.47
77587;BME280;66744;49.716;17.158;2023-04-26T05:51:02;98921.81;;;5.70;71.43
77587;BME280;66744;49.716;17.158;2023-04-26T05:54:04;98932.56;;;5.84;70.92
77587;BME280;66744;49.716;17.158;2023-04-26T05:57:08;98935.63;;;5.93;70.88
77587;BME280;66744;49.716;17.158;2023-04-26T06:03:46;98926.44;;;6.13;70.98
77587;BME280;66744;49.716;17.158;2023-04-26T06:06:52;98930.91;;;6.31;69.33
77587;BME280;66744;49.716;17.158;2023-04-26T06:09:55;98930.28;;;6.50;68.35
77587;BME280;66744;49.716;17.158;2023-04-26T06:12:57;98930.31;;;6.77;67.12
77587;BME280;66744;49.716;17.158;2023-04-26T06:16:08;98936.19;;;6.71;66.65
77587;BME280;66744;49.716;17.158;2023-04-26T06:19:09;98941.19;;;6.50;67.70
77587;BME280;66744;49.716;17.158;2023-04-26T06:22:11;98951.16;;;6.30;67.67
77587;BME280;66744;49.716;17.158;2023-04-26T06:25:12;98956.59;;;6.33;70.25
77587;BME280;66744;49.716;17.158;2023-04-26T06:28:14;98956.78;;;6.49;68.09
77587;BME280;66744;49.716;17.158;2023-04-26T06:31:15;98951.84;;;6.71;68.50
77587;BME280;66744;49.716;17.158;2023-04-26T06:34:17;98952.75;;;6.88;68.72
77587;BME280;66744;49.716;17.158;2023-04-26T06:37:18;98956.16;;;6.95;66.47
77587;BME280;66744;49.716;17.158;2023-04-26T06:40:19;98956.59;;;7.17;68.18
77587;BME280;66744;49.716;17.158;2023-04-26T06:43:21;98956.97;;;7.19;64.38
77587;BME280;66744;49.716;17.158;2023-04-26T06:46:33;98956.22;;;7.18;65.88
77587;BME280;66744;49.716;17.158;2023-04-26T06:49:34;98963.06;;;7.30;67.03
77587;BME280;66744;49.716;17.158;2023-04-26T06:52:36;98966.63;;;7.50;67.77
77587;BME280;66744;49.716;17.158;2023-04-26T06:55:37;98965.75;;;7.57;66.56
77587;BME280;66744;49.716;17.158;2023-04-26T06:58:38;98960.97;;;7.61;65.92
77587;BME280;66744;49.716;17.158;2023-04-26T07:01:39;98971.13;;;7.60;63.61
77587;BME280;66744;49.716;17.158;2023-04-26T07:04:41;98966.38;;;7.64;64.52
77587;BME280;66744;49.716;17.158;2023-04-26T07:07:42;98967.41;;;7.74;63.80
77587;BME280;66744;49.716;17.158;2023-04-26T07:10:43;98961.50;;;7.75;63.93
77587;BME280;66744;49.716;17.158;2023-04-26T07:13:44;98963.28;;;7.86;64.93
77587;BME280;66744;49.716;17.158;2023-04-26T07:16:46;98969.81;;;7.92;61.59
77587;BME280;66744;49.716;17.158;2023-04-26T07:19:47;98963.84;;;7.97;64.43
77587;BME280;66744;49.716;17.158;2023-04-26T07:22:49;98976.06;;;8.12;60.67
77587;BME280;66744;49.716;17.158;2023-04-26T07:25:50;98970.25;;;8.10;63.75
77587;BME280;66744;49.716;17.158;2023-04-26T07:28:52;98975.59;;;8.17;62.46
77587;BME280;66744;49.716;17.158;2023-04-26T07:31:55;98978.09;;;8.31;61.66
77587;BME280;66744;49.716;17.158;2023-04-26T07:34:57;98981.66;;;8.48;59.74
77587;BME280;66744;49.716;17.158;2023-04-26T07:37:58;98979.53;;;8.55;59.12
77587;BME280;66744;49.716;17.158;2023-04-26T07:40:59;98983.91;;;8.53;58.15
77587;BME280;66744;49.716;17.158;2023-04-26T07:44:04;98982.41;;;8.68;58.76
77587;BME280;66744;49.716;17.158;2023-04-26T07:47:14;98983.25;;;8.84;58.51
77587;BME280;66744;49.716;17.158;2023-04-26T07:50:37;98989.47;;;9.21;57.81
77587;BME280;66744;49.716;17.158;2023-04-26T07:53:38;98986.25;;;9.26;56.80
77587;BME280;66744;49.716;17.158;2023-04-26T07:56:40;98991.09;;;9.18;57.20
77587;BME280;66744;49.716;17.158;2023-04-26T07:59:41;98987.09;;;9.55;57.92
77587;BME280;66744;49.716;17.158;2023-04-26T08:02:42;98987.09;;;9.23;56.33
77587;BME280;66744;49.716;17.158;2023-04-26T08:05:43;98991.94;;;8.99;57.64
77587;BME280;66744;49.716;17.158;2023-04-26T08:08:45;98991.44;;;9.04;58.54
77587;BME280;66744;49.716;17.158;2023-04-26T08:11:50;98988.25;;;9.06;55.51
77587;BME280;66744;49.716;17.158;2023-04-26T08:14:51;98991.16;;;8.99;54.30
77587;BME280;66744;49.716;17.158;2023-04-26T08:17:52;98990.13;;;9.09;56.65
77587;BME280;66744;49.716;17.158;2023-04-26T08:20:53;98989.72;;;9.10;53.61
77587;BME280;66744;49.716;17.158;2023-04-26T08:23:55;98998.91;;;9.20;53.95
77587;BME280;66744;49.716;17.158;2023-04-26T08:26:56;98991.66;;;9.29;54.45
77587;BME280;66744;49.716;17.158;2023-04-26T08:29:58;98997.03;;;9.17;53.90
77587;BME280;66744;49.716;17.158;2023-04-26T08:33:00;98989.13;;;9.19;54.46
77587;BME280;66744;49.716;17.158;2023-04-26T08:36:01;98996.09;;;9.39;54.15
77587;BME280;66744;49.716;17.158;2023-04-26T08:39:03;99003.28;;;9.66;53.63
77587;BME280;66744;49.716;17.158;2023-04-26T08:42:12;98994.72;;;9.64;49.63
77587;BME280;66744;49.716;17.158;2023-04-26T08:45:14;98997.72;;;9.69;48.95
77587;BME280;66744;49.716;17.158;2023-04-26T08:48:16;98985.59;;;9.99;50.63
77587;BME280;66744;49.716;17.158;2023-04-26T08:51:18;98991.16;;;10.12;49.05
77587;BME280;66744;49.716;17.158;2023-04-26T08:54:21;98997.03;;;9.97;48.78
77587;BME280;66744;49.716;17.158;2023-04-26T08:57:25;98987.41;;;10.05;48.20
77587;BME280;66744;49.716;17.158;2023-04-26T09:00:27;98989.09;;;10.16;46.91
77587;BME280;66744;49.716;17.158;2023-04-26T09:03:28;98986.06;;;10.55;42.33
77587;BME280;66744;49.716;17.158;2023-04-26T09:06:31;98998.88;;;10.74;42.20
77587;BME280;66744;49.716;17.158;2023-04-26T09:09:35;98997.91;;;10.52;42.95
77587;BME280;66744;49.716;17.158;2023-04-26T09:12:39;98993.78;;;10.31;45.85
77587;BME280;66744;49.716;17.158;2023-04-26T09:15:40;98997.41;;;10.12;45.78
77587;BME280;66744;49.716;17.158;2023-04-26T09:18:49;99007.66;;;9.79;46.23
77587;BME280;66744;49.716;17.158;2023-04-26T09:22:02;99003.03;;;9.28;48.71
77587;BME280;66744;49.716;17.158;2023-04-26T09:25:04;99009.41;;;9.05;48.25
77587;BME280;66744;49.716;17.158;2023-04-26T09:28:20;99008.94;;;9.26;49.71
77587;BME280;66744;49.716;17.158;2023-04-26T09:31:36;98995.94;;;9.79;50.16
77587;BME280;66744;49.716;17.158;2023-04-26T09:34:44;98995.03;;;10.14;45.10
77587;BME280;66744;49.716;17.158;2023-04-26T09:37:59;98988.28;;;9.86;44.96
77587;BME280;66744;49.716;17.158;2023-04-26T09:41:01;99005.25;;;9.81;46.02
77587;BME280;66744;49.716;17.158;2023-04-26T09:44:03;99004.97;;;9.92;44.09
77587;BME280;66744;49.716;17.158;2023-04-26T09:47:09;98994.84;;;10.21;46.58
77587;BME280;66744;49.716;17.158;2023-04-26T09:50:25;98980.19;;;10.82;43.99
77587;BME280;66744;49.716;17.158;2023-04-26T09:56:58;98986.16;;;11.31;41.20
77587;BME280;66744;49.716;17.158;2023-04-26T10:00:05;98982.63;;;11.43;41.40
77587;BME280;66744;49.716;17.158;2023-04-26T10:03:09;98983.84;;;12.01;43.23
77587;BME280;66744;49.716;17.158;2023-04-26T10:06:12;98982.03;;;12.20;42.23
77587;BME280;66744;49.716;17.158;2023-04-26T10:09:13;98976.31;;;12.14;43.32
77587;BME280;66744;49.716;17.158;2023-04-26T10:12:17;98990.69;;;11.97;42.32
77587;BME280;66744;49.716;17.158;2023-04-26T10:15:18;98982.00;;;11.98;41.79
77587;BME280;66744;49.716;17.158;2023-04-26T10:18:22;98973.34;;;11.87;40.73
77587;BME280;66744;49.716;17.158;2023-04-26T10:21:33;98982.69;;;11.90;41.51
77587;BME280;66744;49.716;17.158;2023-04-26T10:24:37;98979.72;;;12.18;41.98
77587;BME280;66744;49.716;17.158;2023-04-26T10:30:53;98979.41;;;12.16;40.07
77587;BME280;66744;49.716;17.158;2023-04-26T10:34:19;98980.06;;;12.64;41.15
77587;BME280;66744;49.716;17.158;2023-04-26T10:37:21;98976.16;;;12.83;40.23
77587;BME280;66744;49.716;17.158;2023-04-26T10:43:28;98966.31;;;12.08;36.71
77587;BME280;66744;49.716;17.158;2023-04-26T10:46:34;98974.22;;;11.84;37.68
77587;BME280;66744;49.716;17.158;2023-04-26T10:49:43;98983.16;;;11.50;38.10
77587;BME280;66744;49.716;17.158;2023-04-26T10:56:01;98980.75;;;11.14;39.55
77587;BME280;66744;49.716;17.158;2023-04-26T11:02:11;99000.50;;;10.84;39.87
77587;BME280;66744;49.716;17.158;2023-04-26T11:05:40;98988.53;;;10.66;38.72
77587;BME280;66744;49.716;17.158;2023-04-26T11:08:46;98989.38;;;10.63;39.31
77587;BME280;66744;49.716;17.158;2023-04-26T11:11:50;98994.75;;;10.53;40.43
77587;BME280;66744;49.716;17.158;2023-04-26T11:14:53;98990.63;;;10.74;40.91
77587;BME280;66744;49.716;17.158;2023-04-26T11:18:01;98982.84;;;10.98;41.50
77587;BME280;66744;49.716;17.158;2023-04-26T11:21:02;98986.38;;;11.36;40.20
77587;BME280;66744;49.716;17.158;2023-04-26T11:24:04;98968.03;;;11.93;37.38
77587;BME280;66744;49.716;17.158;2023-04-26T11:27:10;98986.44;;;12.39;37.12
77587;BME280;66744;49.716;17.158;2023-04-26T11:30:11;98991.63;;;12.15;34.88
77587;BME280;66744;49.716;17.158;2023-04-26T11:33:17;98988.34;;;12.08;35.13
77587;BME280;66744;49.716;17.158;2023-04-26T11:36:21;98986.75;;;11.85;35.35
77587;BME280;66744;49.716;17.158;2023-04-26T11:39:22;98986.84;;;11.94;34.46
77587;BME280;66744;49.716;17.158;2023-04-26T11:42:24;98982.53;;;12.27;34.70
77587;BME280;66744;49.716;17.158;2023-04-26T11:45:26;98980.91;;;11.96;35.94
77587;BME280;66744;49.716;17.158;2023-04-26T11:48:28;98988.22;;;11.77;36.05
77587;BME280;66744;49.716;17.158;2023-04-26T11:51:31;98988.78;;;11.47;36.14
77587;BME280;66744;49.716;17.158;2023-04-26T11:54:33;98994.19;;;11.25;36.07
77587;BME280;66744;49.716;17.158;2023-04-26T11:57:35;98990.31;;;11.23;37.17
77587;BME280;66744;49.716;17.158;2023-04-26T12:03:58;98998.91;;;11.50;33.68
77587;BME280;66744;49.716;17.158;2023-04-26T12:06:59;99000.50;;;11.85;35.51
77587;BME280;66744;49.716;17.158;2023-04-26T12:10:34;98989.41;;;12.23;34.08
77587;BME280;66744;49.716;17.158;2023-04-26T12:13:38;98997.53;;;12.26;32.75
77587;BME280;66744;49.716;17.158;2023-04-26T12:16:42;98989.13;;;12.30;31.81
77587;BME280;66744;49.716;17.158;2023-04-26T12:19:43;98996.03;;;12.13;34.68
77587;BME280;66744;49.716;17.158;2023-04-26T12:22:58;99003.72;;;11.84;33.98
77587;BME280;66744;49.716;17.158;2023-04-26T12:25:59;98992.19;;;11.38;33.69
77587;BME280;66744;49.716;17.158;2023-04-26T12:29:03;98997.69;;;11.26;34.39
77587;BME280;66744;49.716;17.158;2023-04-26T12:32:05;98996.72;;;11.32;36.13
77587;BME280;66744;49.716;17.158;2023-04-26T12:35:06;98999.88;;;11.43;39.09
77587;BME280;66744;49.716;17.158;2023-04-26T12:38:07;99002.00;;;11.39;38.85
77587;BME280;66744;49.716;17.158;2023-04-26T12:41:09;99002.53;;;11.59;36.83
77587;BME280;66744;49.716;17.158;2023-04-26T12:44:11;99003.03;;;11.92;35.91
77587;BME280;66744;49.716;17.158;2023-04-26T12:47:13;99002.84;;;11.74;35.41
77587;BME280;66744;49.716;17.158;2023-04-26T12:50:14;99011.22;;;11.70;33.42
77587;BME280;66744;49.716;17.158;2023-04-26T12:53:16;99005.94;;;11.63;33.77
77587;BME280;66744;49.716;17.158;2023-04-26T12:56:17;99008.69;;;11.76;33.23
77587;BME280;66744;49.716;17.158;2023-04-26T12:59:18;98995.38;;;12.09;33.08
77587;BME280;66744;49.716;17.158;2023-04-26T13:02:20;98993.06;;;12.20;31.38
77587;BME280;66744;49.716;17.158;2023-04-26T13:05:22;98996.97;;;12.32;34.05
77587;BME280;66744;49.716;17.158;2023-04-26T13:08:29;98996.69;;;12.39;31.34
77587;BME280;66744;49.716;17.158;2023-04-26T13:11:30;98993.97;;;12.60;33.04
77587;BME280;66744;49.716;17.158;2023-04-26T13:14:31;99006.53;;;12.92;33.19
77587;BME280;66744;49.716;17.158;2023-04-26T13:17:36;99003.44;;;12.81;32.45
77587;BME280;66744;49.716;17.158;2023-04-26T13:20:37;99007.25;;;12.53;30.36
77587;BME280;66744;49.716;17.158;2023-04-26T13:23:48;99008.63;;;12.36;31.00
77587;BME280;66744;49.716;17.158;2023-04-26T13:26:55;99010.63;;;12.35;29.24
77587;BME280;66744;49.716;17.158;2023-04-26T13:29:58;99008.63;;;12.36;29.81
77587;BME280;66744;49.716;17.158;2023-04-26T13:32:59;99008.84;;;12.07;30.04
77587;BME280;66744;49.716;17.158;2023-04-26T13:36:01;99001.31;;;11.73;31.21
77587;BME280;66744;49.716;17.158;2023-04-26T13:39:02;99011.44;;;11.38;32.77
77587;BME280;66744;49.716;17.158;2023-04-26T13:42:05;99006.59;;;11.17;32.50
77587;BME280;66744;49.716;17.158;2023-04-26T13:45:06;99016.16;;;11.00;33.72
77587;BME280;66744;49.716;17.158;2023-04-26T13:48:09;99019.59;;;11.04;36.78
77587;BME280;66744;49.716;17.158;2023-04-26T13:51:11;99011.78;;;11.28;36.92
77587;BME280;66744;49.716;17.158;2023-04-26T13:54:12;99006.47;;;11.84;35.62
77587;BME280;66744;49.716;17.158;2023-04-26T13:57:14;99015.00;;;12.33;32.25
77587;BME280;66744;49.716;17.158;2023-04-26T14:00:16;99000.53;;;12.85;33.48
77587;BME280;66744;49.716;17.158;2023-04-26T14:03:17;99019.22;;;13.33;32.94
77587;BME280;66744;49.716;17.158;2023-04-26T14:06:18;99015.13;;;13.47;32.47
77587;BME280;66744;49.716;17.158;2023-04-26T14:09:19;99014.81;;;13.45;31.69
77587;BME280;66744;49.716;17.158;2023-04-26T14:12:21;99013.19;;;13.25;30.36
77587;BME280;66744;49.716;17.158;2023-04-26T14:15:22;99007.19;;;13.18;30.25
77587;BME280;66744;49.716;17.158;2023-04-26T14:18:23;99011.75;;;13.12;30.78
77587;BME280;66744;49.716;17.158;2023-04-26T14:21:24;99006.81;;;13.38;31.82
77587;BME280;66744;49.716;17.158;2023-04-26T14:24:26;99020.41;;;13.63;32.00
77587;BME280;66744;49.716;17.158;2023-04-26T14:27:27;99015.94;;;13.65;30.16
77587;BME280;66744;49.716;17.158;2023-04-26T14:30:29;99017.78;;;13.59;30.35
77587;BME280;66744;49.716;17.158;2023-04-26T14:33:31;99018.28;;;13.05;30.87
77587;BME280;66744;49.716;17.158;2023-04-26T14:36:34;99015.69;;;12.58;33.22
77587;BME280;66744;49.716;17.158;2023-04-26T14:39:35;99016.69;;;12.30;32.13
77587;BME280;66744;49.716;17.158;2023-04-26T14:42:37;99022.50;;;12.10;31.96
77587;BME280;66744;49.716;17.158;2023-04-26T14:45:44;99021.44;;;11.83;34.19
77587;BME280;66744;49.716;17.158;2023-04-26T14:48:45;99027.94;;;11.63;32.60
77587;BME280;66744;49.716;17.158;2023-04-26T14:51:46;99025.88;;;11.42;33.80
77587;BME280;66744;49.716;17.158;2023-04-26T14:54:48;99026.41;;;11.50;33.36
77587;BME280;66744;49.716;17.158;2023-04-26T14:57:51;99028.63;;;11.55;33.25
77587;BME280;66744;49.716;17.158;2023-04-26T15:01:08;99031.78;;;11.91;34.73
77587;BME280;66744;49.716;17.158;2023-04-26T15:04:09;99024.16;;;12.30;34.42
77587;BME280;66744;49.716;17.158;2023-04-26T15:07:13;99031.38;;;12.49;34.94
77587;BME280;66744;49.716;17.158;2023-04-26T15:10:15;99026.13;;;12.63;35.38
77587;BME280;66744;49.716;17.158;2023-04-26T15:13:19;99029.78;;;12.82;34.95
77587;BME280;66744;49.716;17.158;2023-04-26T15:16:20;99027.34;;;12.62;33.73
77587;BME280;66744;49.716;17.158;2023-04-26T15:19:21;99029.38;;;12.27;33.81
77587;BME280;66744;49.716;17.158;2023-04-26T15:22:23;99033.94;;;12.09;33.75
77587;BME280;66744;49.716;17.158;2023-04-26T15:25:24;99030.25;;;11.90;35.34
77587;BME280;66744;49.716;17.158;2023-04-26T15:28:25;99030.47;;;11.96;35.50
77587;BME280;66744;49.716;17.158;2023-04-26T15:31:27;99045.72;;;12.09;34.16
77587;BME280;66744;49.716;17.158;2023-04-26T15:34:37;99038.81;;;12.39;33.51
77587;BME280;66744;49.716;17.158;2023-04-26T15:37:40;99033.31;;;12.61;34.39
77587;BME280;66744;49.716;17.158;2023-04-26T15:40:41;99028.13;;;12.63;33.77
77587;BME280;66744;49.716;17.158;2023-04-26T15:43:42;99031.84;;;12.69;33.00
77587;BME280;66744;49.716;17.158;2023-04-26T15:46:43;99036.13;;;12.92;34.08
77587;BME280;66744;49.716;17.158;2023-04-26T15:49:44;99038.34;;;13.06;33.62
77587;BME280;66744;49.716;17.158;2023-04-26T15:52:46;99032.84;;;12.84;33.68
77587;BME280;66744;49.716;17.158;2023-04-26T15:55:47;99042.66;;;12.42;33.34
77587;BME280;66744;49.716;17.158;2023-04-26T15:58:48;99044.19;;;12.08;35.35
77587;BME280;66744;49.716;17.158;2023-04-26T16:01:50;99047.75;;;11.96;35.18
77587;BME280;66744;49.716;17.158;2023-04-26T16:04:52;99052.81;;;11.85;33.67
77587;BME280;66744;49.716;17.158;2023-04-26T16:07:53;99042.06;;;11.78;34.37
77587;BME280;66744;49.716;17.158;2023-04-26T16:11:01;99056.59;;;11.79;33.28
77587;BME280;66744;49.716;17.158;2023-04-26T16:14:03;99058.22;;;11.76;36.37
77587;BME280;66744;49.716;17.158;2023-04-26T16:17:04;99055.16;;;11.74;34.58
77587;BME280;66744;49.716;17.158;2023-04-26T16:20:06;99058.97;;;11.64;37.07
77587;BME280;66744;49.716;17.158;2023-04-26T16:23:08;99057.75;;;11.65;36.14
77587;BME280;66744;49.716;17.158;2023-04-26T16:26:09;99068.44;;;11.38;34.87